sensor_id;sensor_type;location;lat;lon;timestamp;temperature;humidity
59533;DHT22;45351;53.596;10.000;2022-07-23T00:01:40;24.80;51.80
59533;DHT22;45351;53.596;10.000;2022-07-23T00:04:07;24.70;51.70
59533;DHT22;45351;53.596;10.000;2022-07-23T00:06:34;24.80;51.70
59533;DHT22;45351;53.596;10.000;2022-07-23T00:09:02;24.80;51.60
59533;DHT22;45351;53.596;10.000;2022-07-23T00:11:29;24.70;51.50
59533;DHT22;45351;53.596;10.000;2022-07-23T00:13:56;24.70;51.50
59533;DHT22;45351;53.596;10.000;2022-07-23T00:16:23;24.70;51.60
59533;DHT22;45351;53.596;10.000;2022-07-23T00:18:50;24.70;51.60
59533;DHT22;45351;53.596;10.000;2022-07-23T00:21:17;24.70;51.60
59533;DHT22;45351;53.596;10.000;2022-07-23T00:23:44;24.70;51.60
59533;DHT22;45351;53.596;10.000;2022-07-23T00:26:12;24.70;51.50
59533;DHT22;45351;53.596;10.000;2022-07-23T00:28:39;24.70;51.40
59533;DHT22;45351;53.596;10.000;2022-07-23T00:31:06;24.70;51.40
59533;DHT22;45351;53.596;10.000;2022-07-23T00:33:33;24.70;51.30
59533;DHT22;45351;53.596;10.000;2022-07-23T00:35:59;24.70;51.40
59533;DHT22;45351;53.596;10.000;2022-07-23T00:38:26;24.70;51.30
59533;DHT22;45351;53.596;10.000;2022-07-23T00:40:53;24.70;51.30
59533;DHT22;45351;53.596;10.000;2022-07-23T00:43:22;24.70;51.30
59533;DHT22;45351;53.596;10.000;2022-07-23T00:45:49;24.70;51.40
59533;DHT22;45351;53.596;10.000;2022-07-23T00:48:16;24.70;51.40
59533;DHT22;45351;53.596;10.000;2022-07-23T00:50:43;24.70;51.50
59533;DHT22;45351;53.596;10.000;2022-07-23T00:53:11;24.70;51.50
59533;DHT22;45351;53.596;10.000;2022-07-23T00:55:39;24.70;51.60
59533;DHT22;45351;53.596;10.000;2022-07-23T00:58:06;24.70;51.70
59533;DHT22;45351;53.596;10.000;2022-07-23T01:00:35;24.70;51.80
59533;DHT22;45351;53.596;10.000;2022-07-23T01:03:02;24.70;51.80
59533;DHT22;45351;53.596;10.000;2022-07-23T01:05:29;24.70;51.80
59533;DHT22;45351;53.596;10.000;2022-07-23T01:07:56;24.70;51.80
59533;DHT22;45351;53.596;10.000;2022-07-23T01:10:24;24.70;51.80
59533;DHT22;45351;53.596;10.000;2022-07-23T01:12:57;24.70;51.80
59533;DHT22;45351;53.596;10.000;2022-07-23T01:15:25;24.70;51.80
59533;DHT22;45351;53.596;10.000;2022-07-23T01:17:54;24.70;51.80
59533;DHT22;45351;53.596;10.000;2022-07-23T01:20:22;24.70;51.80
59533;DHT22;45351;53.596;10.000;2022-07-23T01:22:50;24.70;51.70
59533;DHT22;45351;53.596;10.000;2022-07-23T01:25:21;24.70;51.80
59533;DHT22;45351;53.596;10.000;2022-07-23T01:28:03;24.70;51.80
59533;DHT22;45351;53.596;10.000;2022-07-23T01:30:30;24.70;51.80
59533;DHT22;45351;53.596;10.000;2022-07-23T01:32:58;24.70;51.80
59533;DHT22;45351;53.596;10.000;2022-07-23T01:35:25;24.70;51.80
59533;DHT22;45351;53.596;10.000;2022-07-23T01:37:58;24.70;52.50
59533;DHT22;45351;53.596;10.000;2022-07-23T01:40:25;24.70;51.90
59533;DHT22;45351;53.596;10.000;2022-07-23T01:42:52;24.70;51.90
59533;DHT22;45351;53.596;10.000;2022-07-23T01:45:20;24.70;51.90
59533;DHT22;45351;53.596;10.000;2022-07-23T01:47:50;24.70;51.90
59533;DHT22;45351;53.596;10.000;2022-07-23T01:50:35;24.70;51.90
59533;DHT22;45351;53.596;10.000;2022-07-23T01:53:45;24.70;51.90
59533;DHT22;45351;53.596;10.000;2022-07-23T01:56:32;24.70;52.00
59533;DHT22;45351;53.596;10.000;2022-07-23T01:59:20;24.70;52.00
59533;DHT22;45351;53.596;10.000;2022-07-23T02:02:07;24.60;51.90
59533;DHT22;45351;53.596;10.000;2022-07-23T02:04:34;24.60;51.90
59533;DHT22;45351;53.596;10.000;2022-07-23T02:07:03;24.60;52.00
59533;DHT22;45351;53.596;10.000;2022-07-23T02:09:31;24.60;52.00
59533;DHT22;45351;53.596;10.000;2022-07-23T02:11:58;24.60;52.00
59533;DHT22;45351;53.596;10.000;2022-07-23T02:14:25;24.60;52.00
59533;DHT22;45351;53.596;10.000;2022-07-23T02:16:52;24.60;52.00
59533;DHT22;45351;53.596;10.000;2022-07-23T02:19:19;24.70;52.10
59533;DHT22;45351;53.596;10.000;2022-07-23T02:21:46;24.70;52.10
59533;DHT22;45351;53.596;10.000;2022-07-23T02:24:13;24.70;52.20
59533;DHT22;45351;53.596;10.000;2022-07-23T02:26:43;24.70;52.20
59533;DHT22;45351;53.596;10.000;2022-07-23T02:29:11;24.70;52.10
59533;DHT22;45351;53.596;10.000;2022-07-23T02:31:38;24.70;52.30
59533;DHT22;45351;53.596;10.000;2022-07-23T02:34:05;24.70;52.30
59533;DHT22;45351;53.596;10.000;2022-07-23T02:36:32;24.70;52.30
59533;DHT22;45351;53.596;10.000;2022-07-23T02:38:59;24.70;52.30
59533;DHT22;45351;53.596;10.000;2022-07-23T02:41:29;24.70;52.30
59533;DHT22;45351;53.596;10.000;2022-07-23T02:43:57;24.70;52.40
59533;DHT22;45351;53.596;10.000;2022-07-23T02:46:25;24.70;52.30
59533;DHT22;45351;53.596;10.000;2022-07-23T02:48:53;24.70;52.40
59533;DHT22;45351;53.596;10.000;2022-07-23T02:51:20;24.70;52.30
59533;DHT22;45351;53.596;10.000;2022-07-23T02:53:53;24.70;52.40
59533;DHT22;45351;53.596;10.000;2022-07-23T02:56:20;24.60;52.30
59533;DHT22;45351;53.596;10.000;2022-07-23T02:58:47;24.70;52.40
59533;DHT22;45351;53.596;10.000;2022-07-23T03:01:15;24.60;52.30
59533;DHT22;45351;53.596;10.000;2022-07-23T03:03:44;24.70;52.40
59533;DHT22;45351;53.596;10.000;2022-07-23T03:06:11;24.70;52.40
59533;DHT22;45351;53.596;10.000;2022-07-23T03:08:39;24.70;52.60
59533;DHT22;45351;53.596;10.000;2022-07-23T03:11:07;24.60;52.60
59533;DHT22;45351;53.596;10.000;2022-07-23T03:13:37;24.60;52.50
59533;DHT22;45351;53.596;10.000;2022-07-23T03:16:04;24.70;52.60
59533;DHT22;45351;53.596;10.000;2022-07-23T03:18:33;24.70;52.60
59533;DHT22;45351;53.596;10.000;2022-07-23T03:21:00;24.70;52.60
59533;DHT22;45351;53.596;10.000;2022-07-23T03:23:27;24.70;52.60
59533;DHT22;45351;53.596;10.000;2022-07-23T03:25:54;24.70;52.60
59533;DHT22;45351;53.596;10.000;2022-07-23T03:28:21;24.70;53.20
59533;DHT22;45351;53.596;10.000;2022-07-23T03:30:48;24.70;52.60
59533;DHT22;45351;53.596;10.000;2022-07-23T03:33:16;24.70;52.50
59533;DHT22;45351;53.596;10.000;2022-07-23T03:35:45;24.60;52.40
59533;DHT22;45351;53.596;10.000;2022-07-23T03:38:33;24.60;52.40
59533;DHT22;45351;53.596;10.000;2022-07-23T03:41:00;24.60;52.30
59533;DHT22;45351;53.596;10.000;2022-07-23T03:43:27;24.60;52.30
59533;DHT22;45351;53.596;10.000;2022-07-23T03:45:54;24.60;52.30
59533;DHT22;45351;53.596;10.000;2022-07-23T03:48:21;24.60;52.20
59533;DHT22;45351;53.596;10.000;2022-07-23T03:50:49;24.60;52.30
59533;DHT22;45351;53.596;10.000;2022-07-23T03:53:17;24.60;52.20
59533;DHT22;45351;53.596;10.000;2022-07-23T03:55:45;24.60;52.30
59533;DHT22;45351;53.596;10.000;2022-07-23T03:58:13;24.60;52.20
59533;DHT22;45351;53.596;10.000;2022-07-23T04:00:40;24.60;52.30
59533;DHT22;45351;53.596;10.000;2022-07-23T04:03:07;24.60;52.30
59533;DHT22;45351;53.596;10.000;2022-07-23T04:05:34;24.60;52.30
59533;DHT22;45351;53.596;10.000;2022-07-23T04:08:12;24.60;52.30
59533;DHT22;45351;53.596;10.000;2022-07-23T04:10:43;24.60;52.30
59533;DHT22;45351;53.596;10.000;2022-07-23T04:13:10;24.60;52.30
59533;DHT22;45351;53.596;10.000;2022-07-23T04:15:37;24.60;52.30
59533;DHT22;45351;53.596;10.000;2022-07-23T04:18:05;24.60;52.30
59533;DHT22;45351;53.596;10.000;2022-07-23T04:20:43;24.60;52.40
59533;DHT22;45351;53.596;10.000;2022-07-23T04:23:12;24.60;52.40
59533;DHT22;45351;53.596;10.000;2022-07-23T04:25:39;24.60;52.70
59533;DHT22;45351;53.596;10.000;2022-07-23T04:28:07;24.60;53.30
59533;DHT22;45351;53.596;10.000;2022-07-23T04:30:34;24.60;53.30
59533;DHT22;45351;53.596;10.000;2022-07-23T04:33:01;24.60;53.30
59533;DHT22;45351;53.596;10.000;2022-07-23T04:35:31;24.70;53.10
59533;DHT22;45351;53.596;10.000;2022-07-23T04:38:08;24.70;53.00
59533;DHT22;45351;53.596;10.000;2022-07-23T04:40:36;24.70;52.70
59533;DHT22;45351;53.596;10.000;2022-07-23T04:43:03;24.70;52.50
59533;DHT22;45351;53.596;10.000;2022-07-23T04:45:32;24.70;52.30
59533;DHT22;45351;53.596;10.000;2022-07-23T04:47:59;24.70;52.20
59533;DHT22;45351;53.596;10.000;2022-07-23T04:50:27;24.70;52.20
59533;DHT22;45351;53.596;10.000;2022-07-23T04:52:57;24.60;52.00
59533;DHT22;45351;53.596;10.000;2022-07-23T04:55:24;24.60;51.90
59533;DHT22;45351;53.596;10.000;2022-07-23T04:57:52;24.60;51.80
59533;DHT22;45351;53.596;10.000;2022-07-23T05:00:19;24.60;51.80
59533;DHT22;45351;53.596;10.000;2022-07-23T05:02:46;24.60;51.70
59533;DHT22;45351;53.596;10.000;2022-07-23T05:05:13;24.60;51.70
59533;DHT22;45351;53.596;10.000;2022-07-23T05:07:41;24.40;50.90
59533;DHT22;45351;53.596;10.000;2022-07-23T05:10:08;23.90;50.20
59533;DHT22;45351;53.596;10.000;2022-07-23T05:12:35;23.30;49.80
59533;DHT22;45351;53.596;10.000;2022-07-23T05:15:04;23.00;50.70
59533;DHT22;45351;53.596;10.000;2022-07-23T05:17:31;22.60;52.10
59533;DHT22;45351;53.596;10.000;2022-07-23T05:19:58;22.20;52.90
59533;DHT22;45351;53.596;10.000;2022-07-23T05:22:25;22.20;53.10
59533;DHT22;45351;53.596;10.000;2022-07-23T05:24:53;21.90;52.00
59533;DHT22;45351;53.596;10.000;2022-07-23T05:27:20;21.90;53.90
59533;DHT22;45351;53.596;10.000;2022-07-23T05:29:47;21.90;53.60
59533;DHT22;45351;53.596;10.000;2022-07-23T05:32:15;21.90;53.10
59533;DHT22;45351;53.596;10.000;2022-07-23T05:34:49;22.00;53.50
59533;DHT22;45351;53.596;10.000;2022-07-23T05:37:16;22.00;53.70
59533;DHT22;45351;53.596;10.000;2022-07-23T05:39:43;22.10;53.20
59533;DHT22;45351;53.596;10.000;2022-07-23T05:42:10;22.10;52.60
59533;DHT22;45351;53.596;10.000;2022-07-23T05:44:38;22.00;52.50
59533;DHT22;45351;53.596;10.000;2022-07-23T05:47:05;21.90;52.20
59533;DHT22;45351;53.596;10.000;2022-07-23T05:49:33;21.90;52.20
59533;DHT22;45351;53.596;10.000;2022-07-23T05:52:26;21.90;52.70
59533;DHT22;45351;53.596;10.000;2022-07-23T05:55:17;22.00;51.70
59533;DHT22;45351;53.596;10.000;2022-07-23T05:57:44;22.10;53.00
59533;DHT22;45351;53.596;10.000;2022-07-23T06:00:11;22.40;52.30
59533;DHT22;45351;53.596;10.000;2022-07-23T06:02:43;22.60;52.60
59533;DHT22;45351;53.596;10.000;2022-07-23T06:05:13;22.80;52.30
59533;DHT22;45351;53.596;10.000;2022-07-23T06:07:40;22.90;52.00
59533;DHT22;45351;53.596;10.000;2022-07-23T06:10:08;23.10;51.90
59533;DHT22;45351;53.596;10.000;2022-07-23T06:12:35;23.10;51.40
59533;DHT22;45351;53.596;10.000;2022-07-23T06:15:03;23.20;50.80
59533;DHT22;45351;53.596;10.000;2022-07-23T06:17:31;23.20;51.00
59533;DHT22;45351;53.596;10.000;2022-07-23T06:19:58;23.20;51.80
59533;DHT22;45351;53.596;10.000;2022-07-23T06:22:26;23.20;50.40
59533;DHT22;45351;53.596;10.000;2022-07-23T06:24:53;23.20;50.80
59533;DHT22;45351;53.596;10.000;2022-07-23T06:27:21;23.20;50.70
59533;DHT22;45351;53.596;10.000;2022-07-23T06:29:49;23.30;51.10
59533;DHT22;45351;53.596;10.000;2022-07-23T06:32:16;23.30;51.00
59533;DHT22;45351;53.596;10.000;2022-07-23T06:34:43;23.30;51.10
59533;DHT22;45351;53.596;10.000;2022-07-23T06:37:36;23.40;50.60
59533;DHT22;45351;53.596;10.000;2022-07-23T06:40:04;23.50;51.00
59533;DHT22;45351;53.596;10.000;2022-07-23T06:42:34;23.40;49.90
59533;DHT22;45351;53.596;10.000;2022-07-23T06:45:05;23.30;49.60
59533;DHT22;45351;53.596;10.000;2022-07-23T06:47:34;23.40;50.40
59533;DHT22;45351;53.596;10.000;2022-07-23T06:50:01;23.30;50.10
59533;DHT22;45351;53.596;10.000;2022-07-23T06:52:29;23.20;50.10
59533;DHT22;45351;53.596;10.000;2022-07-23T06:54:57;23.30;50.90
59533;DHT22;45351;53.596;10.000;2022-07-23T06:57:23;23.40;50.20
59533;DHT22;45351;53.596;10.000;2022-07-23T06:59:51;23.30;50.40
59533;DHT22;45351;53.596;10.000;2022-07-23T07:02:18;23.30;49.70
59533;DHT22;45351;53.596;10.000;2022-07-23T07:04:45;23.20;50.20
59533;DHT22;45351;53.596;10.000;2022-07-23T07:07:12;23.10;50.10
59533;DHT22;45351;53.596;10.000;2022-07-23T07:09:39;23.10;49.80
59533;DHT22;45351;53.596;10.000;2022-07-23T07:12:08;23.00;49.50
59533;DHT22;45351;53.596;10.000;2022-07-23T07:14:34;23.00;49.90
59533;DHT22;45351;53.596;10.000;2022-07-23T07:17:01;22.90;49.70
59533;DHT22;45351;53.596;10.000;2022-07-23T07:19:28;22.80;50.00
59533;DHT22;45351;53.596;10.000;2022-07-23T07:21:55;22.70;50.50
59533;DHT22;45351;53.596;10.000;2022-07-23T07:24:22;22.60;51.20
59533;DHT22;45351;53.596;10.000;2022-07-23T07:26:49;22.50;51.20
59533;DHT22;45351;53.596;10.000;2022-07-23T07:29:17;22.40;52.00
59533;DHT22;45351;53.596;10.000;2022-07-23T07:31:44;22.10;52.60
59533;DHT22;45351;53.596;10.000;2022-07-23T07:34:11;22.20;53.30
59533;DHT22;45351;53.596;10.000;2022-07-23T07:36:38;22.40;52.40
59533;DHT22;45351;53.596;10.000;2022-07-23T07:39:05;22.40;52.60
59533;DHT22;45351;53.596;10.000;2022-07-23T07:41:32;22.30;52.00
59533;DHT22;45351;53.596;10.000;2022-07-23T07:43:59;22.40;52.80
59533;DHT22;45351;53.596;10.000;2022-07-23T07:46:27;22.40;52.30
59533;DHT22;45351;53.596;10.000;2022-07-23T07:48:54;22.40;51.80
59533;DHT22;45351;53.596;10.000;2022-07-23T07:51:21;22.20;52.10
59533;DHT22;45351;53.596;10.000;2022-07-23T07:53:48;22.20;51.70
59533;DHT22;45351;53.596;10.000;2022-07-23T07:56:15;22.20;53.00
59533;DHT22;45351;53.596;10.000;2022-07-23T07:58:41;22.40;52.00
59533;DHT22;45351;53.596;10.000;2022-07-23T08:01:08;22.50;52.00
59533;DHT22;45351;53.596;10.000;2022-07-23T08:03:37;22.70;51.80
59533;DHT22;45351;53.596;10.000;2022-07-23T08:06:04;22.90;51.80
59533;DHT22;45351;53.596;10.000;2022-07-23T08:08:30;23.00;51.10
59533;DHT22;45351;53.596;10.000;2022-07-23T08:10:57;23.20;50.70
59533;DHT22;45351;53.596;10.000;2022-07-23T08:13:24;22.90;50.00
59533;DHT22;45351;53.596;10.000;2022-07-23T08:15:51;22.60;51.00
59533;DHT22;45351;53.596;10.000;2022-07-23T08:18:19;22.60;51.80
59533;DHT22;45351;53.596;10.000;2022-07-23T08:20:47;22.70;52.10
59533;DHT22;45351;53.596;10.000;2022-07-23T08:23:14;22.50;52.30
59533;DHT22;45351;53.596;10.000;2022-07-23T08:25:44;22.40;52.60
59533;DHT22;45351;53.596;10.000;2022-07-23T08:28:13;22.70;52.70
59533;DHT22;45351;53.596;10.000;2022-07-23T08:30:42;22.80;52.00
59533;DHT22;45351;53.596;10.000;2022-07-23T08:33:11;23.00;51.90
59533;DHT22;45351;53.596;10.000;2022-07-23T08:35:40;23.10;51.90
59533;DHT22;45351;53.596;10.000;2022-07-23T08:38:10;23.20;51.60
59533;DHT22;45351;53.596;10.000;2022-07-23T08:40:39;23.40;51.20
59533;DHT22;45351;53.596;10.000;2022-07-23T08:43:11;23.50;51.30
59533;DHT22;45351;53.596;10.000;2022-07-23T08:45:40;23.60;50.50
59533;DHT22;45351;53.596;10.000;2022-07-23T08:48:08;23.70;50.90
59533;DHT22;45351;53.596;10.000;2022-07-23T08:50:37;23.80;50.30
59533;DHT22;45351;53.596;10.000;2022-07-23T08:53:10;23.80;50.20
59533;DHT22;45351;53.596;10.000;2022-07-23T08:55:37;23.80;50.40
59533;DHT22;45351;53.596;10.000;2022-07-23T08:58:04;23.60;48.50
59533;DHT22;45351;53.596;10.000;2022-07-23T09:00:31;23.50;48.80
59533;DHT22;45351;53.596;10.000;2022-07-23T09:02:58;23.40;49.10
59533;DHT22;45351;53.596;10.000;2022-07-23T09:05:25;23.40;48.70
59533;DHT22;45351;53.596;10.000;2022-07-23T09:08:06;23.30;47.70
59533;DHT22;45351;53.596;10.000;2022-07-23T09:10:47;23.20;48.80
59533;DHT22;45351;53.596;10.000;2022-07-23T09:13:26;22.90;47.60
59533;DHT22;45351;53.596;10.000;2022-07-23T09:15:55;22.80;48.30
59533;DHT22;45351;53.596;10.000;2022-07-23T09:18:32;22.80;48.00
59533;DHT22;45351;53.596;10.000;2022-07-23T09:21:11;22.90;48.10
59533;DHT22;45351;53.596;10.000;2022-07-23T09:23:40;23.00;49.70
59533;DHT22;45351;53.596;10.000;2022-07-23T09:26:21;23.10;48.50
59533;DHT22;45351;53.596;10.000;2022-07-23T09:28:54;23.20;50.10
59533;DHT22;45351;53.596;10.000;2022-07-23T09:31:22;23.10;48.40
59533;DHT22;45351;53.596;10.000;2022-07-23T09:33:49;23.20;48.90
59533;DHT22;45351;53.596;10.000;2022-07-23T09:36:27;23.20;49.30
59533;DHT22;45351;53.596;10.000;2022-07-23T09:38:54;23.40;49.90
59533;DHT22;45351;53.596;10.000;2022-07-23T09:41:22;23.40;48.60
59533;DHT22;45351;53.596;10.000;2022-07-23T09:43:55;23.50;48.50
59533;DHT22;45351;53.596;10.000;2022-07-23T09:46:24;23.50;49.40
59533;DHT22;45351;53.596;10.000;2022-07-23T09:48:51;23.50;48.90
59533;DHT22;45351;53.596;10.000;2022-07-23T09:51:18;23.60;49.40
59533;DHT22;45351;53.596;10.000;2022-07-23T09:53:49;23.70;49.30
59533;DHT22;45351;53.596;10.000;2022-07-23T09:56:16;23.70;48.00
59533;DHT22;45351;53.596;10.000;2022-07-23T09:58:45;23.70;48.30
59533;DHT22;45351;53.596;10.000;2022-07-23T10:01:14;23.50;47.50
59533;DHT22;45351;53.596;10.000;2022-07-23T10:03:42;23.40;48.30
59533;DHT22;45351;53.596;10.000;2022-07-23T10:06:43;23.30;48.70
59533;DHT22;45351;53.596;10.000;2022-07-23T10:09:30;23.20;48.10
59533;DHT22;45351;53.596;10.000;2022-07-23T10:12:32;23.30;49.40
59533;DHT22;45351;53.596;10.000;2022-07-23T10:15:12;23.20;48.40
59533;DHT22;45351;53.596;10.000;2022-07-23T10:17:39;23.10;48.60
59533;DHT22;45351;53.596;10.000;2022-07-23T10:20:06;23.10;48.80
59533;DHT22;45351;53.596;10.000;2022-07-23T10:22:35;23.10;48.90
59533;DHT22;45351;53.596;10.000;2022-07-23T10:25:10;23.10;49.10
59533;DHT22;45351;53.596;10.000;2022-07-23T10:27:54;23.20;49.10
59533;DHT22;45351;53.596;10.000;2022-07-23T10:30:32;23.30;48.60
59533;DHT22;45351;53.596;10.000;2022-07-23T10:33:12;23.40;48.10
59533;DHT22;45351;53.596;10.000;2022-07-23T10:35:46;23.60;48.90
59533;DHT22;45351;53.596;10.000;2022-07-23T10:38:18;23.70;48.70
59533;DHT22;45351;53.596;10.000;2022-07-23T10:40:54;23.80;48.60
59533;DHT22;45351;53.596;10.000;2022-07-23T10:43:22;23.80;46.70
59533;DHT22;45351;53.596;10.000;2022-07-23T10:45:51;23.70;47.40
59533;DHT22;45351;53.596;10.000;2022-07-23T10:48:19;23.70;48.00
59533;DHT22;45351;53.596;10.000;2022-07-23T10:51:09;23.70;47.40
59533;DHT22;45351;53.596;10.000;2022-07-23T10:53:53;23.60;47.80
59533;DHT22;45351;53.596;10.000;2022-07-23T10:57:04;23.60;47.80
59533;DHT22;45351;53.596;10.000;2022-07-23T11:02:40;23.40;47.90
59533;DHT22;45351;53.596;10.000;2022-07-23T11:05:09;23.30;48.60
59533;DHT22;45351;53.596;10.000;2022-07-23T11:08:09;23.20;48.70
59533;DHT22;45351;53.596;10.000;2022-07-23T11:10:34;23.00;49.10
59533;DHT22;45351;53.596;10.000;2022-07-23T11:13:26;23.10;49.40
59533;DHT22;45351;53.596;10.000;2022-07-23T11:16:21;23.00;49.30
59533;DHT22;45351;53.596;10.000;2022-07-23T11:19:06;23.10;49.30
59533;DHT22;45351;53.596;10.000;2022-07-23T11:21:47;23.20;49.10
59533;DHT22;45351;53.596;10.000;2022-07-23T11:24:16;23.10;48.90
59533;DHT22;45351;53.596;10.000;2022-07-23T11:26:46;23.00;49.10
59533;DHT22;45351;53.596;10.000;2022-07-23T11:29:40;22.80;49.20
59533;DHT22;45351;53.596;10.000;2022-07-23T11:32:18;22.90;48.90
59533;DHT22;45351;53.596;10.000;2022-07-23T11:34:48;22.90;49.20
59533;DHT22;45351;53.596;10.000;2022-07-23T11:37:35;23.00;48.90
59533;DHT22;45351;53.596;10.000;2022-07-23T11:40:05;22.90;48.30
59533;DHT22;45351;53.596;10.000;2022-07-23T11:42:34;22.80;48.40
59533;DHT22;45351;53.596;10.000;2022-07-23T11:45:03;22.90;49.60
59533;DHT22;45351;53.596;10.000;2022-07-23T11:47:30;23.00;48.90
59533;DHT22;45351;53.596;10.000;2022-07-23T11:50:00;23.10;48.80
59533;DHT22;45351;53.596;10.000;2022-07-23T11:52:28;23.20;49.20
59533;DHT22;45351;53.596;10.000;2022-07-23T11:54:58;23.20;48.90
59533;DHT22;45351;53.596;10.000;2022-07-23T11:57:27;23.30;49.00
59533;DHT22;45351;53.596;10.000;2022-07-23T11:59:56;23.30;48.50
59533;DHT22;45351;53.596;10.000;2022-07-23T12:02:23;23.20;48.30
59533;DHT22;45351;53.596;10.000;2022-07-23T12:04:52;23.10;48.30
59533;DHT22;45351;53.596;10.000;2022-07-23T12:07:25;23.10;48.50
59533;DHT22;45351;53.596;10.000;2022-07-23T12:09:52;23.00;48.80
59533;DHT22;45351;53.596;10.000;2022-07-23T12:12:20;23.00;48.60
59533;DHT22;45351;53.596;10.000;2022-07-23T12:14:48;22.90;48.60
59533;DHT22;45351;53.596;10.000;2022-07-23T12:17:15;23.00;48.80
59533;DHT22;45351;53.596;10.000;2022-07-23T12:19:42;23.10;50.10
59533;DHT22;45351;53.596;10.000;2022-07-23T12:22:09;23.10;49.00
59533;DHT22;45351;53.596;10.000;2022-07-23T12:24:58;23.20;48.80
59533;DHT22;45351;53.596;10.000;2022-07-23T12:27:26;23.20;48.10
59533;DHT22;45351;53.596;10.000;2022-07-23T12:29:53;23.20;48.90
59533;DHT22;45351;53.596;10.000;2022-07-23T12:32:22;23.20;47.70
59533;DHT22;45351;53.596;10.000;2022-07-23T12:34:50;23.20;47.80
59533;DHT22;45351;53.596;10.000;2022-07-23T12:37:28;23.10;47.50
59533;DHT22;45351;53.596;10.000;2022-07-23T12:39:55;23.20;48.30
59533;DHT22;45351;53.596;10.000;2022-07-23T12:42:23;23.30;48.20
59533;DHT22;45351;53.596;10.000;2022-07-23T12:45:05;23.40;48.40
59533;DHT22;45351;53.596;10.000;2022-07-23T12:47:51;23.40;47.30
59533;DHT22;45351;53.596;10.000;2022-07-23T12:50:35;23.30;47.60
59533;DHT22;45351;53.596;10.000;2022-07-23T12:53:07;23.30;48.00
59533;DHT22;45351;53.596;10.000;2022-07-23T12:55:36;23.30;48.00
59533;DHT22;45351;53.596;10.000;2022-07-23T12:58:06;23.30;47.60
59533;DHT22;45351;53.596;10.000;2022-07-23T13:00:59;23.20;46.60
59533;DHT22;45351;53.596;10.000;2022-07-23T13:03:29;23.20;47.40
59533;DHT22;45351;53.596;10.000;2022-07-23T13:05:56;23.20;47.40
59533;DHT22;45351;53.596;10.000;2022-07-23T13:08:24;23.30;47.60
59533;DHT22;45351;53.596;10.000;2022-07-23T13:10:51;23.40;47.90
59533;DHT22;45351;53.596;10.000;2022-07-23T13:13:25;23.40;47.50
59533;DHT22;45351;53.596;10.000;2022-07-23T13:15:53;23.50;47.60
59533;DHT22;45351;53.596;10.000;2022-07-23T13:18:20;23.60;47.60
59533;DHT22;45351;53.596;10.000;2022-07-23T13:20:48;23.50;47.00
59533;DHT22;45351;53.596;10.000;2022-07-23T13:23:15;23.60;47.40
59533;DHT22;45351;53.596;10.000;2022-07-23T13:25:43;23.40;46.50
59533;DHT22;45351;53.596;10.000;2022-07-23T13:28:10;23.40;46.90
59533;DHT22;45351;53.596;10.000;2022-07-23T13:30:39;23.30;46.90
59533;DHT22;45351;53.596;10.000;2022-07-23T13:33:06;23.40;47.10
59533;DHT22;45351;53.596;10.000;2022-07-23T13:35:33;23.40;47.40
59533;DHT22;45351;53.596;10.000;2022-07-23T13:38:00;23.40;46.70
59533;DHT22;45351;53.596;10.000;2022-07-23T13:40:28;23.40;46.90
59533;DHT22;45351;53.596;10.000;2022-07-23T13:42:55;23.30;47.00
59533;DHT22;45351;53.596;10.000;2022-07-23T13:45:22;23.20;46.30
59533;DHT22;45351;53.596;10.000;2022-07-23T13:47:50;23.30;47.00
59533;DHT22;45351;53.596;10.000;2022-07-23T13:50:17;23.10;46.70
59533;DHT22;45351;53.596;10.000;2022-07-23T13:52:44;23.30;47.40
59533;DHT22;45351;53.596;10.000;2022-07-23T13:55:11;23.40;47.00
59533;DHT22;45351;53.596;10.000;2022-07-23T13:57:38;23.40;46.70
59533;DHT22;45351;53.596;10.000;2022-07-23T14:00:08;23.30;47.00
59533;DHT22;45351;53.596;10.000;2022-07-23T14:02:37;23.20;47.20
59533;DHT22;45351;53.596;10.000;2022-07-23T14:05:08;23.20;47.80
59533;DHT22;45351;53.596;10.000;2022-07-23T14:07:36;23.20;47.80
59533;DHT22;45351;53.596;10.000;2022-07-23T14:10:03;23.10;47.70
59533;DHT22;45351;53.596;10.000;2022-07-23T14:12:31;23.00;47.70
59533;DHT22;45351;53.596;10.000;2022-07-23T14:14:58;22.90;47.60
59533;DHT22;45351;53.596;10.000;2022-07-23T14:17:26;22.80;47.90
59533;DHT22;45351;53.596;10.000;2022-07-23T14:19:53;22.80;48.00
59533;DHT22;45351;53.596;10.000;2022-07-23T14:22:21;23.00;48.00
59533;DHT22;45351;53.596;10.000;2022-07-23T14:24:48;23.10;48.10
59533;DHT22;45351;53.596;10.000;2022-07-23T14:27:15;23.20;47.60
59533;DHT22;45351;53.596;10.000;2022-07-23T14:29:42;23.30;47.20
59533;DHT22;45351;53.596;10.000;2022-07-23T14:32:09;23.30;46.70
59533;DHT22;45351;53.596;10.000;2022-07-23T14:34:35;23.20;46.80
59533;DHT22;45351;53.596;10.000;2022-07-23T14:37:02;23.20;46.90
59533;DHT22;45351;53.596;10.000;2022-07-23T14:39:30;23.20;46.80
59533;DHT22;45351;53.596;10.000;2022-07-23T14:41:57;23.10;46.20
59533;DHT22;45351;53.596;10.000;2022-07-23T14:44:24;23.00;46.30
59533;DHT22;45351;53.596;10.000;2022-07-23T14:46:51;23.00;46.60
59533;DHT22;45351;53.596;10.000;2022-07-23T14:49:19;23.10;46.90
59533;DHT22;45351;53.596;10.000;2022-07-23T14:51:46;23.10;46.60
59533;DHT22;45351;53.596;10.000;2022-07-23T14:54:13;23.20;46.90
59533;DHT22;45351;53.596;10.000;2022-07-23T14:56:41;23.30;47.40
59533;DHT22;45351;53.596;10.000;2022-07-23T14:59:09;23.40;47.00
59533;DHT22;45351;53.596;10.000;2022-07-23T15:01:36;23.30;46.70
59533;DHT22;45351;53.596;10.000;2022-07-23T15:04:03;23.30;46.20
59533;DHT22;45351;53.596;10.000;2022-07-23T15:06:30;23.30;46.80
59533;DHT22;45351;53.596;10.000;2022-07-23T15:08:57;23.30;46.60
59533;DHT22;45351;53.596;10.000;2022-07-23T15:11:25;23.40;46.60
59533;DHT22;45351;53.596;10.000;2022-07-23T15:13:53;23.30;46.30
59533;DHT22;45351;53.596;10.000;2022-07-23T15:16:20;23.40;46.40
59533;DHT22;45351;53.596;10.000;2022-07-23T15:18:47;23.30;45.90
59533;DHT22;45351;53.596;10.000;2022-07-23T15:21:14;23.20;46.60
59533;DHT22;45351;53.596;10.000;2022-07-23T15:23:41;23.20;46.10
59533;DHT22;45351;53.596;10.000;2022-07-23T15:26:08;23.10;46.50
59533;DHT22;45351;53.596;10.000;2022-07-23T15:28:35;23.10;46.60
59533;DHT22;45351;53.596;10.000;2022-07-23T15:31:03;23.10;47.20
59533;DHT22;45351;53.596;10.000;2022-07-23T15:33:30;23.00;46.90
59533;DHT22;45351;53.596;10.000;2022-07-23T15:35:57;23.00;46.70